Terminal Aerodrome Forecast
Issued by NWS Grand Rapids, MI

Home | Current Version | Previous Version | Text Only | Print | Product List | Glossary On
Versions: 1 2 3 4 5 6 7 8 9 10 11 12 13 14 15
589
FTUS43 KGRR 260342 AAA
TAFGRR
TAF AMD
KGRR 260342Z 2604/2624 26006KT P6SM SCT060
     FM260430 26006KT 5SM -SHRA BR BKN060
      TEMPO 2605/2606 2SM TSRA BR SCT011 OVC025CB
     FM260600 22006KT 4SM BR BKN080
     FM261400 22008KT P6SM SCT070=

USA.gov is the U.S. government's official web portal to all federal, state and local government web resources and services.